createdAt,value
2022-09-21T00:00:52.736Z,2.70
2022-09-21T00:03:21.191Z,2.90
2022-09-21T00:05:50.910Z,2.83
2022-09-21T00:08:19.521Z,2.60
2022-09-21T00:10:51.479Z,2.83
2022-09-21T00:13:20.190Z,3.20
2022-09-21T00:15:48.555Z,2.80
2022-09-21T00:18:17.355Z,3.37
2022-09-21T00:20:46.512Z,2.67
2022-09-21T00:23:16.536Z,3.10
2022-09-21T00:25:44.896Z,2.50
2022-09-21T00:28:13.480Z,2.90
2022-09-21T00:30:41.886Z,2.57
2022-09-21T00:33:10.244Z,2.53
2022-09-21T00:35:40.309Z,2.50
2022-09-21T00:38:08.638Z,2.60
2022-09-21T00:40:38.392Z,2.90
2022-09-21T00:43:14.042Z,3.10
2022-09-21T00:45:42.934Z,2.60
2022-09-21T00:48:11.484Z,3.10
2022-09-21T00:50:43.741Z,3.60
2022-09-21T00:53:12.134Z,2.90
2022-09-21T00:55:44.301Z,3.30
2022-09-21T00:58:16.079Z,2.90
2022-09-21T01:00:44.590Z,3.00
2022-09-21T01:03:13.974Z,3.00
2022-09-21T01:05:42.330Z,3.10
2022-09-21T01:08:13.068Z,2.80
2022-09-21T01:10:48.687Z,3.00
2022-09-21T01:13:22.750Z,3.20
2022-09-21T01:15:53.950Z,3.30
2022-09-21T01:18:23.169Z,3.30
2022-09-21T01:21:11.304Z,2.93
2022-09-21T01:23:54.485Z,3.27
2022-09-21T01:26:28.358Z,3.30
2022-09-21T01:29:14.703Z,3.57
2022-09-21T01:31:48.562Z,3.40
2022-09-21T01:34:19.685Z,3.20
2022-09-21T01:36:50.081Z,3.17
2022-09-21T01:39:20.771Z,3.60
2022-09-21T01:42:32.066Z,3.50
2022-09-21T01:45:02.511Z,3.33
2022-09-21T01:47:32.577Z,3.37
2022-09-21T01:50:03.059Z,3.30
2022-09-21T01:52:33.811Z,3.30
2022-09-21T01:55:04.346Z,3.27
2022-09-21T01:57:36.669Z,3.63
2022-09-21T02:00:06.166Z,3.53
2022-09-21T02:02:43.979Z,3.50
2022-09-21T02:05:13.252Z,3.57
2022-09-21T02:07:41.853Z,3.37
2022-09-21T02:10:13.483Z,3.53
2022-09-21T02:12:42.279Z,3.37
2022-09-21T02:15:11.368Z,3.73
2022-09-21T02:17:46.774Z,3.30
2022-09-21T02:20:19.429Z,3.40
2022-09-21T02:22:54.872Z,3.80
2022-09-21T02:25:26.736Z,3.17
2022-09-21T02:27:56.751Z,3.53
2022-09-21T02:30:25.912Z,3.83
2022-09-21T02:33:01.214Z,3.80
2022-09-21T02:35:36.258Z,3.53
2022-09-21T02:38:09.238Z,3.57
2022-09-21T02:40:40.376Z,3.77
2022-09-21T02:43:12.139Z,3.13
2022-09-21T02:45:43.580Z,3.03
2022-09-21T02:48:15.849Z,3.20
2022-09-21T02:50:46.270Z,3.27
2022-09-21T02:53:15.861Z,3.30
2022-09-21T02:55:45.397Z,2.73
2022-09-21T02:58:16.477Z,3.77
2022-09-21T03:00:44.895Z,3.57
2022-09-21T03:03:18.256Z,3.80
2022-09-21T03:05:47.792Z,3.20
2022-09-21T03:08:16.392Z,3.53
2022-09-21T03:10:44.929Z,3.70
2022-09-21T03:13:13.494Z,3.37
2022-09-21T03:15:42.506Z,3.50
2022-09-21T03:18:11.394Z,3.60
2022-09-21T03:20:42.004Z,3.27
2022-09-21T03:23:10.371Z,3.47
2022-09-21T03:25:38.804Z,2.90
2022-09-21T03:28:07.224Z,3.23
2022-09-21T03:30:35.593Z,3.60
2022-09-21T03:33:05.122Z,3.63
2022-09-21T03:35:33.954Z,3.10
2022-09-21T03:38:03.885Z,3.27
2022-09-21T03:40:32.293Z,3.60
2022-09-21T03:43:00.711Z,3.20
2022-09-21T03:45:29.043Z,3.20
2022-09-21T03:47:57.994Z,3.10
2022-09-21T03:50:26.747Z,3.17
2022-09-21T03:52:55.096Z,3.13
2022-09-21T03:55:25.171Z,3.30
2022-09-21T03:57:53.550Z,3.50
2022-09-21T04:00:21.968Z,3.00
2022-09-21T04:02:50.409Z,3.30
2022-09-21T04:05:21.925Z,3.70
2022-09-21T04:07:50.289Z,3.70
2022-09-21T04:10:19.600Z,3.13
2022-09-21T04:12:49.359Z,3.63
2022-09-21T04:15:20.500Z,3.20
2022-09-21T04:17:49.130Z,3.63
2022-09-21T04:20:17.573Z,3.97
2022-09-21T04:22:46.781Z,3.53
2022-09-21T04:25:15.790Z,3.70
2022-09-21T04:27:44.478Z,3.63
2022-09-21T04:30:15.321Z,4.30
2022-09-21T04:32:43.650Z,3.57
2022-09-21T04:35:12.277Z,4.17
2022-09-21T04:37:40.792Z,3.80
2022-09-21T04:40:09.745Z,4.30
2022-09-21T04:42:38.130Z,3.90
2022-09-21T04:45:08.021Z,4.63
2022-09-21T04:47:37.750Z,4.60
2022-09-21T04:50:06.548Z,4.57
2022-09-21T04:52:35.155Z,4.37
2022-09-21T04:55:03.643Z,4.33
2022-09-21T04:57:31.992Z,4.23
2022-09-21T05:00:00.332Z,5.17
2022-09-21T05:02:28.696Z,5.47
2022-09-21T05:04:58.424Z,5.07
2022-09-21T05:07:26.830Z,5.47
2022-09-21T05:10:03.557Z,5.30
2022-09-21T05:12:31.965Z,5.60
2022-09-21T05:15:00.545Z,5.97
2022-09-21T05:17:28.999Z,5.97
2022-09-21T05:19:58.730Z,6.20
2022-09-21T05:22:27.102Z,5.17
2022-09-21T05:24:55.820Z,6.60
2022-09-21T05:27:24.226Z,5.37
2022-09-21T05:29:53.164Z,5.10
2022-09-21T05:32:24.235Z,6.10
2022-09-21T05:34:55.915Z,5.43
2022-09-21T05:37:38.823Z,6.07
2022-09-21T05:40:08.140Z,5.83
2022-09-21T05:42:36.828Z,5.20
2022-09-21T05:45:05.672Z,5.83
2022-09-21T05:47:39.080Z,4.50
2022-09-21T05:50:15.260Z,4.40
2022-09-21T05:52:49.747Z,4.70
2022-09-21T05:55:25.454Z,3.80
2022-09-21T05:57:56.959Z,4.07
2022-09-21T06:00:25.788Z,4.70
2022-09-21T06:03:11.531Z,4.97
2022-09-21T06:05:43.118Z,5.03
2022-09-21T06:08:13.489Z,4.87
2022-09-21T06:10:45.365Z,5.37
2022-09-21T06:13:13.760Z,4.70
2022-09-21T06:15:42.242Z,4.20
2022-09-21T06:18:15.532Z,5.30
2022-09-21T06:20:46.072Z,4.77
2022-09-21T06:23:16.050Z,4.60
2022-09-21T06:25:56.091Z,4.17
2022-09-21T06:28:26.781Z,5.20
2022-09-21T06:30:55.772Z,4.53
2022-09-21T06:33:24.545Z,4.57
2022-09-21T06:35:56.408Z,4.60
2022-09-21T06:38:26.447Z,4.40
2022-09-21T06:40:54.930Z,4.17
2022-09-21T06:43:23.683Z,4.60
2022-09-21T06:45:55.934Z,4.20
2022-09-21T06:48:24.625Z,4.43
2022-09-21T06:50:53.542Z,4.87
2022-09-21T06:53:22.701Z,4.60
2022-09-21T06:55:52.434Z,4.80
2022-09-21T06:58:20.766Z,5.40
2022-09-21T07:00:49.573Z,4.93
2022-09-21T07:03:19.384Z,5.30
2022-09-21T07:05:51.388Z,6.20
2022-09-21T07:11:11.187Z,5.03
2022-09-21T07:13:39.573Z,4.80
2022-09-21T07:16:09.349Z,4.93
2022-09-21T07:18:43.536Z,4.63
2022-09-21T07:21:14.839Z,4.77
2022-09-21T07:23:43.480Z,4.70
2022-09-21T07:26:14.193Z,4.30
2022-09-21T07:28:42.740Z,4.87
2022-09-21T07:31:13.898Z,4.70
2022-09-21T07:33:42.545Z,4.67
2022-09-21T07:36:12.823Z,4.83
2022-09-21T07:38:41.728Z,4.90
2022-09-21T07:41:10.419Z,5.07
2022-09-21T07:43:40.433Z,5.07
2022-09-21T07:46:09.377Z,4.73
2022-09-21T07:48:37.874Z,4.30
2022-09-21T07:51:07.298Z,4.20
2022-09-21T07:53:35.827Z,4.30
2022-09-21T07:56:05.498Z,4.10
2022-09-21T07:58:51.772Z,3.57
2022-09-21T08:01:21.598Z,4.83
2022-09-21T08:03:50.613Z,4.53
2022-09-21T08:06:19.166Z,4.40
2022-09-21T08:08:48.361Z,3.90
2022-09-21T08:11:16.986Z,3.77
2022-09-21T08:13:45.345Z,3.53
2022-09-21T08:16:13.831Z,3.50
2022-09-21T08:18:43.746Z,3.93
2022-09-21T08:21:13.007Z,3.30
2022-09-21T08:23:42.683Z,3.30
2022-09-21T08:26:18.864Z,3.20
2022-09-21T08:28:49.823Z,2.73
2022-09-21T08:31:19.020Z,3.47
2022-09-21T08:33:48.995Z,2.93
2022-09-21T08:36:17.411Z,3.10
2022-09-21T08:38:45.757Z,3.20
2022-09-21T08:41:16.408Z,3.30
2022-09-21T08:43:45.567Z,3.13
2022-09-21T08:46:16.139Z,3.30
2022-09-21T08:48:46.370Z,3.30
2022-09-21T08:51:18.141Z,3.30
2022-09-21T08:53:47.403Z,2.80
2022-09-21T08:56:16.773Z,2.60
2022-09-21T08:58:45.108Z,3.30
2022-09-21T09:01:21.554Z,2.80
2022-09-21T09:03:55.938Z,2.73
2022-09-21T09:06:29.846Z,3.10
2022-09-21T09:09:13.646Z,2.80
2022-09-21T09:11:49.226Z,2.53
2022-09-21T09:14:27.431Z,2.30
2022-09-21T09:17:00.845Z,2.00
2022-09-21T09:19:30.378Z,2.00
2022-09-21T09:22:00.160Z,1.90
2022-09-21T09:24:33.935Z,1.73
2022-09-21T09:27:05.133Z,1.77
2022-09-21T09:29:36.311Z,1.83
2022-09-21T09:32:05.392Z,1.60
2022-09-21T09:34:35.456Z,1.40
2022-09-21T09:37:10.938Z,1.47
2022-09-21T09:39:39.721Z,1.20
2022-09-21T09:42:34.473Z,1.40
2022-09-21T09:45:14.972Z,1.40
2022-09-21T09:47:48.785Z,1.17
2022-09-21T09:50:21.730Z,1.10
2022-09-21T09:52:53.175Z,1.00
2022-09-21T09:55:24.547Z,1.20
2022-09-21T09:57:53.945Z,1.40
2022-09-21T10:00:22.717Z,0.93
2022-09-21T10:02:52.520Z,1.70
2022-09-21T10:05:22.481Z,1.20
2022-09-21T10:07:54.045Z,1.00
2022-09-21T10:10:24.771Z,1.20
2022-09-21T10:12:53.519Z,1.07
2022-09-21T10:15:22.750Z,0.90
2022-09-21T10:17:58.870Z,0.90
2022-09-21T10:20:27.252Z,0.90
2022-09-21T10:22:57.271Z,1.23
2022-09-21T10:25:25.939Z,0.90
2022-09-21T10:27:56.928Z,1.10
2022-09-21T10:30:34.945Z,0.93
2022-09-21T10:33:03.541Z,0.90
2022-09-21T10:35:32.043Z,0.80
2022-09-21T10:38:12.962Z,1.10
2022-09-21T10:40:41.677Z,0.90
2022-09-21T10:43:23.687Z,1.00
2022-09-21T10:45:56.479Z,0.90
2022-09-21T10:48:25.942Z,1.03
2022-09-21T10:50:55.028Z,0.97
2022-09-21T10:53:29.254Z,0.77
2022-09-21T10:56:15.087Z,0.90
2022-09-21T10:59:04.532Z,1.10
2022-09-21T11:01:33.275Z,0.80
2022-09-21T11:04:03.101Z,0.70
2022-09-21T11:06:32.499Z,0.90
2022-09-21T11:09:04.555Z,1.07
2022-09-21T11:11:45.766Z,1.10
2022-09-21T11:14:21.899Z,0.80
2022-09-21T11:16:53.320Z,1.13
2022-09-21T11:19:26.078Z,0.90
2022-09-21T11:21:57.689Z,0.90
2022-09-21T11:24:30.601Z,0.90
2022-09-21T11:27:03.973Z,0.80
2022-09-21T11:29:35.307Z,0.80
2022-09-21T11:32:10.289Z,0.70
2022-09-21T11:34:45.739Z,0.90
2022-09-21T11:37:20.416Z,0.90
2022-09-21T11:39:56.125Z,0.90
2022-09-21T11:42:32.803Z,1.10
2022-09-21T11:45:02.462Z,0.97
2022-09-21T11:47:42.363Z,1.00
2022-09-21T11:50:30.208Z,0.87
2022-09-21T11:53:06.654Z,1.00
2022-09-21T11:55:45.427Z,1.20
2022-09-21T11:58:19.405Z,1.00
2022-09-21T12:00:52.373Z,0.80
2022-09-21T12:03:39.165Z,0.90
2022-09-21T12:06:12.898Z,1.20
2022-09-21T12:08:54.132Z,1.00
2022-09-21T12:11:31.408Z,0.90
2022-09-21T12:14:06.160Z,0.90
2022-09-21T12:16:37.775Z,0.83
2022-09-21T12:19:09.664Z,1.10
2022-09-21T12:21:41.446Z,0.70
2022-09-21T12:24:16.182Z,0.80
2022-09-21T12:26:48.460Z,1.30
2022-09-21T12:29:18.933Z,1.07
2022-09-21T12:31:52.440Z,0.90
2022-09-21T12:34:22.565Z,0.60
2022-09-21T12:36:55.195Z,0.70
2022-09-21T12:39:26.111Z,0.80
2022-09-21T12:41:59.478Z,0.50
2022-09-21T12:44:30.820Z,0.70
2022-09-21T12:47:09.406Z,0.83
2022-09-21T12:49:40.497Z,0.70
2022-09-21T12:52:08.994Z,0.60
2022-09-21T12:54:43.847Z,0.80
2022-09-21T12:57:42.761Z,0.73
2022-09-21T13:00:11.450Z,0.60
2022-09-21T13:05:17.028Z,0.70
2022-09-21T13:07:56.927Z,0.80
2022-09-21T13:10:32.740Z,0.73
2022-09-21T13:13:03.826Z,0.80
2022-09-21T13:15:33.455Z,0.70
2022-09-21T13:18:03.046Z,0.70
2022-09-21T13:20:36.475Z,0.60
2022-09-21T13:23:05.101Z,0.80
2022-09-21T13:25:37.794Z,0.60
2022-09-21T13:28:19.722Z,0.80
2022-09-21T13:30:48.896Z,0.80
2022-09-21T13:33:50.080Z,1.03
2022-09-21T13:36:37.449Z,0.70
2022-09-21T13:39:17.029Z,0.90
2022-09-21T13:42:02.475Z,0.80
2022-09-21T13:44:46.453Z,0.80
2022-09-21T13:47:15.185Z,1.10
2022-09-21T13:49:54.827Z,0.90
2022-09-21T13:52:34.268Z,0.70
2022-09-21T13:55:04.138Z,1.20
2022-09-21T13:57:35.015Z,0.90
2022-09-21T14:00:22.077Z,0.83
2022-09-21T14:02:58.051Z,1.00
2022-09-21T14:05:28.501Z,0.73
2022-09-21T14:07:57.676Z,0.90
2022-09-21T14:10:26.913Z,1.10
2022-09-21T14:12:56.684Z,1.10
2022-09-21T14:15:41.250Z,1.00
2022-09-21T14:18:36.721Z,0.80
2022-09-21T14:21:18.388Z,0.97
2022-09-21T14:24:05.548Z,0.80
2022-09-21T14:26:35.164Z,0.77
2022-09-21T14:29:09.199Z,1.13
2022-09-21T14:31:40.094Z,0.90
2022-09-21T14:34:13.781Z,0.90
2022-09-21T14:36:43.733Z,1.10
2022-09-21T14:39:18.590Z,1.37
2022-09-21T14:41:47.853Z,0.77
2022-09-21T14:44:20.239Z,0.90
2022-09-21T14:46:54.796Z,0.90
2022-09-21T14:49:31.210Z,0.90
2022-09-21T14:52:19.027Z,0.87
2022-09-21T14:54:56.156Z,0.90
2022-09-21T14:57:37.215Z,1.10
2022-09-21T15:00:21.086Z,1.00
2022-09-21T15:02:52.024Z,0.90
2022-09-21T15:05:26.219Z,0.90
2022-09-21T15:08:15.687Z,0.83
2022-09-21T15:10:58.120Z,1.10
2022-09-21T15:13:36.976Z,1.10
2022-09-21T15:16:21.845Z,1.00
2022-09-21T15:18:51.390Z,0.90
2022-09-21T15:21:27.145Z,1.00
2022-09-21T15:23:55.876Z,1.20
2022-09-21T15:26:26.567Z,1.33
2022-09-21T15:29:09.813Z,0.90
2022-09-21T15:31:39.284Z,1.00
2022-09-21T15:34:08.469Z,1.10
2022-09-21T15:36:43.718Z,1.20
2022-09-21T15:39:27.245Z,1.13
2022-09-21T15:42:12.508Z,1.00
2022-09-21T15:44:41.459Z,1.10
2022-09-21T15:47:12.502Z,0.90
2022-09-21T15:49:41.286Z,0.97
2022-09-21T15:52:13.945Z,1.00
2022-09-21T15:54:43.853Z,1.00
2022-09-21T15:57:26.008Z,0.97
2022-09-21T15:59:54.549Z,0.90
2022-09-21T16:02:23.982Z,1.10
2022-09-21T16:04:52.904Z,1.03
2022-09-21T16:07:31.538Z,0.93
2022-09-21T16:10:00.946Z,1.00
2022-09-21T16:12:50.259Z,1.00
2022-09-21T16:15:20.112Z,0.90
2022-09-21T16:18:01.356Z,1.00
2022-09-21T16:20:40.702Z,1.00
2022-09-21T16:23:15.882Z,1.20
2022-09-21T16:25:44.512Z,1.00
2022-09-21T16:28:31.005Z,1.00
2022-09-21T16:31:00.300Z,1.13
2022-09-21T16:33:39.876Z,1.10
2022-09-21T16:36:23.377Z,1.03
2022-09-21T16:38:54.064Z,1.20
2022-09-21T16:41:23.058Z,1.33
2022-09-21T16:43:56.906Z,1.30
2022-09-21T16:46:26.527Z,0.97
2022-09-21T16:48:55.588Z,1.10
2022-09-21T16:51:25.640Z,1.07
2022-09-21T16:53:55.460Z,1.10
2022-09-21T16:56:23.935Z,1.10
2022-09-21T16:58:57.185Z,1.10
2022-09-21T17:01:25.645Z,1.20
2022-09-21T17:03:54.074Z,1.00
2022-09-21T17:06:23.045Z,1.50
2022-09-21T17:08:51.549Z,1.20
2022-09-21T17:11:21.535Z,1.27
2022-09-21T17:13:49.908Z,1.33
2022-09-21T17:16:18.985Z,1.40
2022-09-21T17:18:47.531Z,1.40
2022-09-21T17:21:15.966Z,1.60
2022-09-21T17:23:44.951Z,1.43
2022-09-21T17:26:18.001Z,1.50
2022-09-21T17:28:47.808Z,1.70
2022-09-21T17:31:17.426Z,1.60
2022-09-21T17:33:45.949Z,1.50
2022-09-21T17:36:14.860Z,1.63
2022-09-21T17:38:43.307Z,1.80
2022-09-21T17:41:18.122Z,1.50
2022-09-21T17:43:51.811Z,1.63
2022-09-21T17:46:25.144Z,1.70
2022-09-21T17:48:53.876Z,1.70
2022-09-21T17:51:36.551Z,1.80
2022-09-21T17:54:05.288Z,2.10
2022-09-21T17:56:40.620Z,1.97
2022-09-21T17:59:17.873Z,1.90
2022-09-21T18:01:46.334Z,1.97
2022-09-21T18:04:16.075Z,1.90
2022-09-21T18:06:44.678Z,2.20
2022-09-21T18:09:13.673Z,2.07
2022-09-21T18:11:48.547Z,2.10
2022-09-21T18:14:23.268Z,2.30
2022-09-21T18:16:57.242Z,2.80
2022-09-21T18:19:34.555Z,2.70
2022-09-21T18:22:04.921Z,2.63
2022-09-21T18:24:33.508Z,2.80
2022-09-21T18:27:02.279Z,2.57
2022-09-21T18:29:41.777Z,2.50
2022-09-21T18:32:21.796Z,2.30
2022-09-21T18:35:08.604Z,2.57
2022-09-21T18:37:39.745Z,2.43
2022-09-21T18:40:15.297Z,2.00
2022-09-21T18:42:50.347Z,2.30
2022-09-21T18:45:24.257Z,2.33
2022-09-21T18:47:59.906Z,2.30
2022-09-21T18:50:32.178Z,2.50
2022-09-21T18:53:03.974Z,2.33
2022-09-21T18:55:33.436Z,2.10
2022-09-21T18:58:02.654Z,2.30
2022-09-21T19:00:35.126Z,2.40
2022-09-21T19:03:22.640Z,2.20
2022-09-21T19:06:03.833Z,2.10
2022-09-21T19:08:40.178Z,2.30
2022-09-21T19:11:12.998Z,2.30
2022-09-21T19:13:45.256Z,2.20
2022-09-21T19:16:19.089Z,2.20
2022-09-21T19:18:52.663Z,1.90
2022-09-21T19:21:26.721Z,2.43
2022-09-21T19:24:03.220Z,2.53
2022-09-21T19:26:34.277Z,3.50
2022-09-21T19:29:07.812Z,2.40
2022-09-21T19:31:37.776Z,4.17
2022-09-21T19:34:11.913Z,4.83
2022-09-21T19:36:40.715Z,2.73
2022-09-21T19:39:10.283Z,2.63
2022-09-21T19:41:47.408Z,2.57
2022-09-21T19:44:21.863Z,2.50
2022-09-21T19:46:58.617Z,2.40
2022-09-21T19:49:33.713Z,2.40
2022-09-21T19:52:04.984Z,2.63
2022-09-21T19:54:51.197Z,2.40
2022-09-21T19:57:38.890Z,2.70
2022-09-21T20:00:08.949Z,2.60
2022-09-21T20:02:42.429Z,2.77
2022-09-21T20:05:13.961Z,2.80
2022-09-21T20:07:45.469Z,2.83
2022-09-21T20:10:25.343Z,2.90
2022-09-21T20:12:59.455Z,3.13
2022-09-21T20:15:32.752Z,2.93
2022-09-21T20:18:05.376Z,2.53
2022-09-21T20:20:34.912Z,2.77
2022-09-21T20:23:04.861Z,3.30
2022-09-21T20:25:37.023Z,3.10
2022-09-21T20:28:06.214Z,3.20
2022-09-21T20:30:35.478Z,3.30
2022-09-21T20:33:06.810Z,3.53
2022-09-21T20:35:35.725Z,3.77
2022-09-21T20:38:04.077Z,3.77
2022-09-21T20:40:33.002Z,3.60
2022-09-21T20:43:01.999Z,3.07
2022-09-21T20:45:32.301Z,2.60
2022-09-21T20:48:13.048Z,2.93
2022-09-21T20:50:43.544Z,3.30
2022-09-21T20:53:12.622Z,2.70
2022-09-21T20:55:41.122Z,3.03
2022-09-21T20:58:11.799Z,3.13
2022-09-21T21:00:40.191Z,3.43
2022-09-21T21:03:08.593Z,2.90
2022-09-21T21:05:37.213Z,3.10
2022-09-21T21:08:09.068Z,3.37
2022-09-21T21:10:38.166Z,3.97
2022-09-21T21:13:06.877Z,3.30
2022-09-21T21:15:35.215Z,3.47
2022-09-21T21:18:03.975Z,4.03
2022-09-21T21:20:32.535Z,3.50
2022-09-21T21:23:04.514Z,3.37
2022-09-21T21:25:36.993Z,3.77
2022-09-21T21:28:05.580Z,4.90
2022-09-21T21:30:34.071Z,3.90
2022-09-21T21:33:05.171Z,3.63
2022-09-21T21:35:33.579Z,3.80
2022-09-21T21:38:02.411Z,3.37
2022-09-21T21:40:30.867Z,3.80
2022-09-21T21:43:00.775Z,3.53
2022-09-21T21:45:29.126Z,4.27
2022-09-21T21:47:57.779Z,3.80
2022-09-21T21:50:26.549Z,4.10
2022-09-21T21:52:59.260Z,3.30
2022-09-21T21:55:28.082Z,3.37
2022-09-21T21:57:57.154Z,3.43
2022-09-21T22:00:26.826Z,11.67
2022-09-21T22:02:57.079Z,4.43
2022-09-21T22:05:26.070Z,4.77
2022-09-21T22:07:54.379Z,6.00
2022-09-21T22:10:22.741Z,3.93
2022-09-21T22:12:52.776Z,3.20
2022-09-21T22:15:21.232Z,3.60
2022-09-21T22:17:50.913Z,3.13
2022-09-21T22:20:19.246Z,3.10
2022-09-21T22:22:49.765Z,3.30
2022-09-21T22:25:18.150Z,3.37
2022-09-21T22:27:46.546Z,3.70
2022-09-21T22:30:15.023Z,3.80
2022-09-21T22:32:43.312Z,3.53
2022-09-21T22:35:12.977Z,3.23
2022-09-21T22:37:41.252Z,3.87
2022-09-21T22:40:10.170Z,4.10
2022-09-21T22:42:38.577Z,4.97
2022-09-21T22:45:07.282Z,4.60
2022-09-21T22:47:35.623Z,4.03
2022-09-21T22:50:03.972Z,4.10
2022-09-21T22:52:33.776Z,4.37
2022-09-21T22:55:02.125Z,3.87
2022-09-21T22:57:30.443Z,3.93
2022-09-21T22:59:58.788Z,4.30
2022-09-21T23:02:27.814Z,3.63
2022-09-21T23:04:56.415Z,3.30
2022-09-21T23:07:24.747Z,3.90
2022-09-21T23:09:54.470Z,4.20
2022-09-21T23:12:22.806Z,3.83
2022-09-21T23:14:51.429Z,4.20
2022-09-21T23:17:19.758Z,4.60
2022-09-21T23:19:48.115Z,4.73
2022-09-21T23:22:16.492Z,4.53
2022-09-21T23:24:44.867Z,4.87
2022-09-21T23:27:14.576Z,4.43
2022-09-21T23:29:42.943Z,4.70
2022-09-21T23:32:11.332Z,4.77
2022-09-21T23:34:39.738Z,4.90
2022-09-21T23:37:08.165Z,3.97
2022-09-21T23:39:36.545Z,8.80
2022-09-21T23:42:05.009Z,5.00
2022-09-21T23:44:34.723Z,8.20
2022-09-21T23:47:03.231Z,7.80
2022-09-21T23:49:31.687Z,6.17
2022-09-21T23:52:03.426Z,4.27
2022-09-21T23:54:31.783Z,3.90
2022-09-21T23:57:00.133Z,3.40
2022-09-21T23:59:31.264Z,3.30
